Time;durP1;ratioP1;P1;durP2;ratioP2;P2;SDS_P1;SDS_P2;PMS_P1;PMS_P2;Temp;Humidity;BMP_temperature;BMP_pressure;BME280_temperature;BME280_humidity;BME280_pressure;Samples;Min_cycle;Max_cycle;Signal;HPM_P1;HPM_P2
2023/07/04 00:02:07;;;;;;;11.40;2.65;;;18.40;71.40;;;;;;5070258;28;45550;-71
2023/07/04 00:04:33;;;;;;;9.57;1.90;;;18.40;72.60;;;;;;5080352;28;45495;-71
2023/07/04 00:07:03;;;;;;;7.38;2.22;;;18.40;71.60;;;;;;5077761;28;45420;-71
2023/07/04 00:09:30;;;;;;;6.95;1.80;;;18.50;72.40;;;;;;5063436;28;46258;-71
2023/07/04 00:11:58;;;;;;;12.80;2.30;;;18.50;71.70;;;;;;5065711;28;45992;-70
2023/07/04 00:14:25;;;;;;;16.17;2.72;;;18.40;72.40;;;;;;5078471;28;45591;-71
2023/07/04 00:16:51;;;;;;;10.88;2.10;;;18.50;72.00;;;;;;5070325;28;45564;-71
2023/07/04 00:19:18;;;;;;;5.75;1.88;;;18.40;72.60;;;;;;5069642;28;46592;-71
2023/07/04 00:21:45;;;;;;;10.32;2.30;;;18.30;73.40;;;;;;5075474;28;45378;-70
2023/07/04 00:24:13;;;;;;;13.80;1.83;;;18.40;73.30;;;;;;5068908;28;45523;-71
2023/07/04 00:26:40;;;;;;;11.02;2.30;;;18.40;73.30;;;;;;5071888;28;45493;-71
2023/07/04 00:29:07;;;;;;;9.02;2.08;;;18.40;73.40;;;;;;5071587;28;46357;-71
2023/07/04 00:31:33;;;;;;;14.95;2.72;;;18.30;73.90;;;;;;5076831;28;45486;-70
2023/07/04 00:34:00;;;;;;;11.98;2.92;;;18.20;74.10;;;;;;5078147;28;45313;-71
2023/07/04 00:36:29;;;;;;;8.45;2.47;;;18.20;74.70;;;;;;5083792;28;45437;-70
2023/07/04 00:38:57;;;;;;;10.32;2.10;;;18.20;75.10;;;;;;5079931;28;45574;-71
2023/07/04 00:41:27;;;;;;;10.18;2.22;;;18.30;74.60;;;;;;5076312;28;45379;-70
2023/07/04 00:44:00;;;;;;;5.45;1.88;;;18.00;76.50;;;;;;5084101;28;45379;-71
2023/07/04 00:46:38;;;;;;;9.32;2.10;;;17.90;76.40;;;;;;5082157;27;45588;-70
2023/07/04 00:49:18;;;;;;;10.38;2.35;;;17.90;76.70;;;;;;5080901;28;46978;-71
2023/07/04 00:51:56;;;;;;;9.65;2.33;;;17.90;76.40;;;;;;5073013;28;45361;-70
2023/07/04 00:54:25;;;;;;;10.57;2.22;;;17.90;76.50;;;;;;5084445;28;45412;-70
2023/07/04 00:57:06;;;;;;;10.88;2.45;;;18.00;77.10;;;;;;5083975;28;45277;-70
2023/07/04 00:59:35;;;;;;;16.17;2.38;;;18.00;77.30;;;;;;5083540;28;46336;-71
2023/07/04 01:02:02;;;;;;;10.68;2.30;;;18.20;76.70;;;;;;5081221;28;45346;-71
2023/07/04 01:04:32;;;;;;;14.90;2.60;;;18.30;76.20;;;;;;5073764;28;45312;-71
2023/07/04 01:07:09;;;;;;;11.85;2.08;;;18.10;76.60;;;;;;5067854;28;45276;-71
2023/07/04 01:09:38;;;;;;;8.30;2.58;;;18.20;76.70;;;;;;5076644;28;45493;-71
2023/07/04 01:12:08;;;;;;;12.07;2.25;;;18.10;77.40;;;;;;5080223;28;45340;-71
2023/07/04 01:14:35;;;;;;;17.83;2.63;;;18.10;77.50;;;;;;5069932;27;45333;-70
2023/07/04 01:17:03;;;;;;;10.45;2.30;;;18.00;78.30;;;;;;5074856;28;45494;-71
2023/07/04 01:19:32;;;;;;;10.68;2.30;;;18.00;78.40;;;;;;5067319;28;46800;-71
2023/07/04 01:22:10;;;;;;;7.68;2.28;;;17.90;79.20;;;;;;5075725;28;45277;-71
2023/07/04 01:24:45;;;;;;;18.67;2.42;;;17.90;79.90;;;;;;5070386;27;45432;-71
2023/07/04 01:27:15;;;;;;;10.20;2.30;;;18.00;79.20;;;;;;5067974;28;45369;-71
2023/07/04 01:29:43;;;;;;;6.15;1.90;;;18.00;79.60;;;;;;5071155;28;46374;-71
2023/07/04 01:32:10;;;;;;;12.57;2.67;;;17.90;80.10;;;;;;5078346;28;45392;-70
2023/07/04 01:34:37;;;;;;;12.48;2.40;;;18.00;79.80;;;;;;5082363;28;45443;-71
2023/07/04 01:37:05;;;;;;;10.65;2.30;;;18.00;79.80;;;;;;5072337;28;45478;-70
2023/07/04 01:39:32;;;;;;;12.88;2.67;;;18.00;80.00;;;;;;5072306;28;47343;-71
2023/07/04 01:42:04;;;;;;;12.02;3.08;;;17.90;80.70;;;;;;5082425;28;45683;-71
2023/07/04 01:44:33;;;;;;;11.88;2.40;;;17.80;81.20;;;;;;5071573;28;45352;-70
2023/07/04 01:46:59;;;;;;;11.00;2.38;;;17.80;81.40;;;;;;5068306;28;45365;-71
2023/07/04 01:49:26;;;;;;;9.38;2.53;;;18.00;80.70;;;;;;5073799;28;47652;-70
2023/07/04 01:51:53;;;;;;;12.63;2.55;;;17.90;80.90;;;;;;5071270;28;45655;-70
2023/07/04 01:54:20;;;;;;;14.55;2.40;;;17.90;81.40;;;;;;5068983;28;45495;-71
2023/07/04 01:56:48;;;;;;;10.65;2.60;;;17.90;81.30;;;;;;5078382;28;45390;-71
2023/07/04 01:59:15;;;;;;;8.15;2.20;;;17.80;81.80;;;;;;5080090;28;48150;-71
2023/07/04 02:01:43;;;;;;;8.10;1.85;;;17.70;82.20;;;;;;5079640;28;45464;-71
2023/07/04 02:04:10;;;;;;;8.25;1.75;;;17.60;83.90;;;;;;5074170;28;45402;-71
2023/07/04 02:06:37;;;;;;;13.90;2.83;;;17.60;83.60;;;;;;5073818;28;45392;-71
2023/07/04 02:09:04;;;;;;;11.95;2.00;;;17.50;83.90;;;;;;5063312;28;47080;-71
2023/07/04 02:11:31;;;;;;;10.57;1.95;;;17.40;84.50;;;;;;5071235;28;45285;-71
2023/07/04 02:14:00;;;;;;;14.02;2.67;;;17.40;85.20;;;;;;5070425;28;45483;-71
2023/07/04 02:16:27;;;;;;;20.10;2.50;;;17.50;84.70;;;;;;5081878;28;45486;-71
2023/07/04 02:18:55;;;;;;;13.90;2.85;;;17.40;85.20;;;;;;5072119;28;46302;-71
2023/07/04 02:21:21;;;;;;;13.68;2.40;;;17.50;85.60;;;;;;5069062;28;45387;-71
2023/07/04 02:23:48;;;;;;;12.48;2.40;;;17.50;85.40;;;;;;5065878;28;45393;-70
2023/07/04 02:26:15;;;;;;;9.48;2.35;;;17.50;85.70;;;;;;5070338;28;45759;-71
2023/07/04 02:28:42;;;;;;;9.48;2.42;;;17.40;86.20;;;;;;5063895;28;46737;-70
2023/07/04 02:31:10;;;;;;;12.35;2.22;;;17.30;86.90;;;;;;5068772;28;45214;-71
2023/07/04 02:33:37;;;;;;;12.93;3.13;;;17.40;86.60;;;;;;5072593;28;45521;-71
2023/07/04 02:36:06;;;;;;;11.48;2.42;;;17.40;86.70;;;;;;5082480;28;45362;-70
2023/07/04 02:38:33;;;;;;;8.30;2.08;;;17.60;86.20;;;;;;5076166;28;45387;-70
2023/07/04 02:41:00;;;;;;;13.82;2.65;;;17.50;86.80;;;;;;5082029;28;45367;-70
2023/07/04 02:43:27;;;;;;;13.55;2.83;;;17.50;87.00;;;;;;5081079;28;45580;-70
2023/07/04 02:45:53;;;;;;;14.90;2.53;;;17.40;87.10;;;;;;5082651;28;45381;-70
2023/07/04 02:48:20;;;;;;;16.10;2.47;;;17.40;87.30;;;;;;5077724;28;47066;-70
2023/07/04 02:50:47;;;;;;;13.70;3.00;;;17.50;86.80;;;;;;5074152;28;46374;-71
2023/07/04 02:53:20;;;;;;;15.02;2.50;;;17.60;86.40;;;;;;5075714;28;45438;-71
2023/07/04 02:55:47;;;;;;;14.75;2.92;;;17.40;87.40;;;;;;5074154;28;45417;-70
2023/07/04 02:58:14;;;;;;;11.90;2.35;;;17.50;87.50;;;;;;5075263;28;46393;-71
2023/07/04 03:00:40;;;;;;;10.35;2.30;;;17.50;87.30;;;;;;5077403;28;45361;-71
2023/07/04 03:03:07;;;;;;;11.13;2.47;;;17.60;87.10;;;;;;5071851;28;45447;-71
2023/07/04 03:05:35;;;;;;;15.73;2.70;;;17.50;87.70;;;;;;5072614;28;45250;-71
2023/07/04 03:08:03;;;;;;;12.63;2.50;;;17.50;87.30;;;;;;5073656;28;47816;-70
2023/07/04 03:10:31;;;;;;;12.43;2.40;;;17.50;87.60;;;;;;5078459;28;45491;-71
2023/07/04 03:12:58;;;;;;;14.80;2.22;;;17.40;88.40;;;;;;5075510;28;45347;-70
2023/07/04 03:15:25;;;;;;;10.77;2.63;;;17.70;87.40;;;;;;5067892;28;45338;-71
2023/07/04 03:17:53;;;;;;;17.45;3.10;;;17.60;87.90;;;;;;5074851;28;46290;-70
2023/07/04 03:20:20;;;;;;;17.42;2.95;;;17.30;89.00;;;;;;5077976;28;45472;-70
2023/07/04 03:22:47;;;;;;;15.00;3.10;;;17.40;88.90;;;;;;5082182;28;45340;-70
2023/07/04 03:25:15;;;;;;;16.38;2.67;;;17.30;89.40;;;;;;5070518;28;45648;-70
2023/07/04 03:27:43;;;;;;;10.65;2.83;;;17.30;89.80;;;;;;5080991;28;47257;-70
2023/07/04 03:30:12;;;;;;;12.75;2.75;;;17.40;89.40;;;;;;5069159;28;45454;-71
2023/07/04 03:32:38;;;;;;;18.67;2.67;;;17.30;90.00;;;;;;5066283;28;45444;-70
2023/07/04 03:35:06;;;;;;;12.82;2.45;;;17.30;90.00;;;;;;5072109;28;45334;-70
2023/07/04 03:37:34;;;;;;;16.02;3.35;;;17.40;90.10;;;;;;5078067;27;47543;-71
2023/07/04 03:40:06;;;;;;;11.43;2.75;;;17.60;89.30;;;;;;5089364;27;45352;-70
2023/07/04 03:42:33;;;;;;;14.65;2.45;;;17.60;89.30;;;;;;5084164;27;45281;-70
2023/07/04 03:45:02;;;;;;;16.50;3.20;;;17.60;89.10;;;;;;5085792;27;45503;-71
2023/07/04 03:47:29;;;;;;;17.50;2.92;;;17.60;89.20;;;;;;5087052;27;47145;-70
2023/07/04 03:49:55;;;;;;;20.15;3.17;;;17.60;89.30;;;;;;5084818;28;45525;-71
2023/07/04 03:52:22;;;;;;;13.52;2.88;;;17.60;89.80;;;;;;5075543;28;45419;-70
2023/07/04 03:54:49;;;;;;;12.80;2.58;;;17.50;90.00;;;;;;5080246;28;45408;-70
2023/07/04 03:57:16;;;;;;;11.48;2.40;;;17.50;90.00;;;;;;5081727;28;47518;-70
2023/07/04 03:59:43;;;;;;;16.33;3.05;;;17.60;90.10;;;;;;5076572;28;45668;-71
2023/07/04 04:02:11;;;;;;;16.70;3.35;;;17.60;90.10;;;;;;5074915;28;45456;-70
2023/07/04 04:04:39;;;;;;;11.80;2.42;;;17.60;90.00;;;;;;5076632;27;45346;-70
2023/07/04 04:07:07;;;;;;;14.52;2.55;;;17.60;90.10;;;;;;5072866;28;46725;-70
2023/07/04 04:09:34;;;;;;;12.77;2.65;;;17.50;90.40;;;;;;5076545;28;45384;-71
2023/07/04 04:12:01;;;;;;;11.98;2.75;;;17.50;90.60;;;;;;5072813;28;45500;-70
2023/07/04 04:14:29;;;;;;;9.93;2.38;;;18.10;88.50;;;;;;5076850;28;45401;-70
2023/07/04 04:16:55;;;;;;;9.57;2.97;;;18.70;85.50;;;;;;5070822;28;45427;-71
2023/07/04 04:19:23;;;;;;;17.33;2.28;;;18.90;83.80;;;;;;5077120;28;45380;-70
2023/07/04 04:21:50;;;;;;;14.30;2.70;;;19.20;82.60;;;;;;5078583;28;45621;-70
2023/07/04 04:24:17;;;;;;;12.48;2.58;;;19.00;83.10;;;;;;5064141;28;45395;-71
2023/07/04 04:26:47;;;;;;;8.60;2.00;;;19.10;82.70;;;;;;5063879;28;46573;-71
2023/07/04 04:29:15;;;;;;;9.55;2.33;;;19.40;82.20;;;;;;5071809;28;45456;-71
2023/07/04 04:31:42;;;;;;;13.52;2.88;;;19.30;82.60;;;;;;5070966;28;45582;-71
2023/07/04 04:34:09;;;;;;;13.82;2.28;;;18.50;85.90;;;;;;5083345;27;45187;-71
2023/07/04 04:36:37;;;;;;;15.75;2.80;;;17.90;89.10;;;;;;5072457;28;47462;-70
2023/07/04 04:39:05;;;;;;;14.82;3.70;;;17.70;90.30;;;;;;5072898;28;45466;-71
2023/07/04 04:41:31;;;;;;;23.85;3.10;;;17.60;90.50;;;;;;5068424;28;45448;-71
2023/07/04 04:44:02;;;;;;;14.82;2.55;;;17.60;90.70;;;;;;5070827;28;45505;-71
2023/07/04 04:46:29;;;;;;;13.30;2.50;;;17.70;90.60;;;;;;5072973;28;46276;-70
2023/07/04 04:48:58;;;;;;;16.85;2.65;;;17.70;90.50;;;;;;5075892;28;45343;-71
2023/07/04 04:51:25;;;;;;;18.75;3.05;;;17.70;90.90;;;;;;5074268;28;45406;-69
2023/07/04 04:53:53;;;;;;;11.02;2.90;;;17.70;90.90;;;;;;5074370;28;45433;-70
2023/07/04 04:56:20;;;;;;;17.42;3.50;;;17.70;90.80;;;;;;5081171;28;45398;-69
2023/07/04 04:58:47;;;;;;;14.77;2.88;;;17.70;90.70;;;;;;5081412;28;45474;-69
2023/07/04 05:01:16;;;;;;;17.90;3.70;;;17.80;90.60;;;;;;5082885;28;45353;-69
2023/07/04 05:03:43;;;;;;;17.98;3.40;;;17.90;90.70;;;;;;5080105;28;45305;-68
2023/07/04 05:06:11;;;;;;;15.10;3.00;;;17.80;90.70;;;;;;5075006;28;46556;-70
2023/07/04 05:08:38;;;;;;;13.73;2.72;;;17.90;90.70;;;;;;5075295;28;45820;-69
2023/07/04 05:11:08;;;;;;;16.83;3.28;;;18.00;90.50;;;;;;5084091;28;45277;-70
2023/07/04 05:13:36;;;;;;;24.60;3.45;;;18.00;90.40;;;;;;5082913;28;45438;-70
2023/07/04 05:16:05;;;;;;;16.90;2.85;;;17.90;90.50;;;;;;5083830;28;47579;-70
2023/07/04 05:18:32;;;;;;;25.33;3.22;;;17.80;90.80;;;;;;5070654;28;46283;-70
2023/07/04 05:21:03;;;;;;;15.60;3.35;;;17.90;90.70;;;;;;5065544;28;45734;-70
2023/07/04 05:23:30;;;;;;;27.38;3.38;;;18.00;90.80;;;;;;5077523;28;45652;-70
2023/07/04 05:26:07;;;;;;;17.58;2.80;;;17.90;90.70;;;;;;5073798;28;47223;-70
2023/07/04 05:28:34;;;;;;;23.85;3.22;;;17.90;90.60;;;;;;5065472;28;45473;-71
2023/07/04 05:31:02;;;;;;;17.85;3.25;;;17.90;90.60;;;;;;5073260;28;45413;-70
2023/07/04 05:33:29;;;;;;;20.75;3.17;;;17.90;90.80;;;;;;5071842;28;45189;-70
2023/07/04 05:36:03;;;;;;;16.10;3.15;;;17.90;90.80;;;;;;5073836;28;47072;-71
2023/07/04 05:38:30;;;;;;;20.13;3.15;;;18.00;91.00;;;;;;5074115;28;46053;-71
2023/07/04 05:40:57;;;;;;;19.63;2.90;;;17.90;90.50;;;;;;5073902;28;45354;-71
2023/07/04 05:43:26;;;;;;;17.13;2.90;;;18.00;90.60;;;;;;5065874;28;45612;-71
2023/07/04 05:45:54;;;;;;;14.85;2.83;;;18.00;90.20;;;;;;5079499;28;47453;-71
2023/07/04 05:48:21;;;;;;;17.63;2.95;;;18.00;90.40;;;;;;5072663;28;45448;-70
2023/07/04 05:50:52;;;;;;;13.77;2.97;;;18.00;90.50;;;;;;5066431;28;45410;-71
2023/07/04 05:53:23;;;;;;;21.23;3.47;;;17.90;90.60;;;;;;5071098;28;45519;-70
2023/07/04 05:55:50;;;;;;;15.75;3.33;;;17.90;90.40;;;;;;5064343;28;46559;-70
2023/07/04 05:58:17;;;;;;;14.45;3.00;;;18.00;90.40;;;;;;5066062;28;45334;-71
2023/07/04 06:00:45;;;;;;;10.80;2.85;;;18.00;90.50;;;;;;5073632;27;45601;-70
2023/07/04 06:03:12;;;;;;;17.27;3.70;;;18.10;90.30;;;;;;5074698;28;45407;-70
2023/07/04 06:05:40;;;;;;;26.08;4.60;;;18.20;90.20;;;;;;5069508;28;48044;-71
2023/07/04 06:08:07;;;;;;;17.05;2.88;;;18.20;90.20;;;;;;5068360;28;45331;-70
2023/07/04 06:10:34;;;;;;;16.65;2.90;;;18.30;90.00;;;;;;5070625;28;45412;-71
2023/07/04 06:13:01;;;;;;;18.15;3.20;;;18.30;89.50;;;;;;5069342;28;45483;-70
2023/07/04 06:15:28;;;;;;;15.50;3.38;;;18.30;88.90;;;;;;5074415;28;46380;-70
2023/07/04 06:17:56;;;;;;;15.23;3.00;;;18.20;89.80;;;;;;5075311;28;45465;-71
2023/07/04 06:20:23;;;;;;;19.08;3.13;;;18.40;89.20;;;;;;5072242;28;45420;-71
2023/07/04 06:22:50;;;;;;;16.77;3.13;;;18.30;90.40;;;;;;5077363;28;45577;-70
2023/07/04 06:25:17;;;;;;;17.02;3.28;;;17.90;90.60;;;;;;5071036;28;45398;-71
2023/07/04 06:27:44;;;;;;;20.00;3.45;;;18.00;90.60;;;;;;5074071;28;45364;-70
2023/07/04 06:30:12;;;;;;;14.10;3.00;;;18.10;90.70;;;;;;5061352;28;45424;-71
2023/07/04 06:32:40;;;;;;;21.27;3.20;;;17.90;91.10;;;;;;5062633;28;45499;-70
2023/07/04 06:35:09;;;;;;;16.88;3.00;;;18.00;90.30;;;;;;5076436;28;48015;-70
2023/07/04 06:37:36;;;;;;;18.60;2.90;;;17.80;90.50;;;;;;5072466;28;45318;-70
2023/07/04 06:40:02;;;;;;;16.27;3.63;;;18.10;88.50;;;;;;5069810;28;45475;-71
2023/07/04 06:42:32;;;;;;;17.38;3.05;;;18.20;88.90;;;;;;5080400;28;45253;-71
2023/07/04 06:44:58;;;;;;;12.15;2.60;;;18.40;88.10;;;;;;5062314;28;46582;-71
2023/07/04 06:47:25;;;;;;;17.80;3.17;;;18.40;87.70;;;;;;5071150;28;45352;-71
2023/07/04 06:49:53;;;;;;;14.40;3.47;;;18.50;87.60;;;;;;5066123;28;45515;-70
2023/07/04 06:52:21;;;;;;;12.63;2.83;;;18.50;87.30;;;;;;5071091;28;45356;-71
2023/07/04 06:54:52;;;;;;;16.08;2.70;;;18.40;86.70;;;;;;5062166;28;47537;-70
2023/07/04 06:57:19;;;;;;;11.10;2.70;;;18.40;87.10;;;;;;5059182;28;45454;-71
2023/07/04 06:59:46;;;;;;;13.60;2.53;;;18.40;88.00;;;;;;5075978;28;45613;-71
2023/07/04 07:02:14;;;;;;;10.93;2.53;;;18.60;85.90;;;;;;5073214;28;45198;-71
2023/07/04 07:04:41;;;;;;;13.60;3.03;;;18.30;88.00;;;;;;5070207;28;46139;-71
2023/07/04 07:07:09;;;;;;;15.32;3.25;;;18.50;86.90;;;;;;5070986;28;45553;-71
2023/07/04 07:09:40;;;;;;;10.82;2.60;;;18.80;85.90;;;;;;5068600;28;45253;-71
2023/07/04 07:12:08;;;;;;;15.43;2.63;;;19.00;85.60;;;;;;5067158;27;45441;-69
2023/07/04 07:14:34;;;;;;;17.27;3.20;;;19.20;83.20;;;;;;5066312;28;46269;-69
2023/07/04 07:17:02;;;;;;;12.75;3.05;;;19.20;84.20;;;;;;5078073;28;45502;-69
2023/07/04 07:19:28;;;;;;;13.95;3.60;;;18.80;84.70;;;;;;5066540;28;45343;-69
2023/07/04 07:21:55;;;;;;;16.20;3.63;;;18.70;84.30;;;;;;5067094;28;45541;-70
2023/07/04 07:24:23;;;;;;;14.05;3.05;;;18.70;83.40;;;;;;5068179;28;46688;-69
2023/07/04 07:26:51;;;;;;;14.35;2.80;;;18.60;84.20;;;;;;5065311;28;45411;-69
2023/07/04 07:29:18;;;;;;;13.07;2.53;;;18.70;84.90;;;;;;5072246;28;45438;-70
2023/07/04 07:31:45;;;;;;;18.23;2.83;;;18.70;84.80;;;;;;5081284;28;45498;-70
2023/07/04 07:34:12;;;;;;;16.58;2.92;;;18.80;83.40;;;;;;5078830;28;45542;-70
2023/07/04 07:36:41;;;;;;;17.80;3.20;;;19.00;83.00;;;;;;5068877;28;45522;-70
2023/07/04 07:39:10;;;;;;;11.10;2.80;;;19.20;82.40;;;;;;5072991;28;45308;-71
2023/07/04 07:41:39;;;;;;;11.63;2.72;;;19.30;82.40;;;;;;5082596;28;45405;-71
2023/07/04 07:44:08;;;;;;;15.27;3.05;;;19.20;82.50;;;;;;5082182;28;46132;-70
2023/07/04 07:46:36;;;;;;;13.35;3.13;;;18.90;82.90;;;;;;5072709;28;45353;-70
2023/07/04 07:49:03;;;;;;;12.38;2.53;;;18.70;85.60;;;;;;5064445;28;45305;-70
2023/07/04 07:51:30;;;;;;;16.23;3.47;;;18.90;85.20;;;;;;5067383;28;45371;-70
2023/07/04 07:53:59;;;;;;;12.02;2.22;;;18.90;85.60;;;;;;5071981;28;46432;-70
2023/07/04 07:56:30;;;;;;;10.98;2.45;;;19.20;83.10;;;;;;5067759;28;45977;-70
2023/07/04 07:58:58;;;;;;;11.52;3.08;;;19.20;83.20;;;;;;5068857;28;45291;-70
2023/07/04 08:01:31;;;;;;;13.80;2.85;;;19.50;80.20;;;;;;5072411;28;45490;-71
2023/07/04 08:03:58;;;;;;;10.95;2.40;;;19.80;79.20;;;;;;5074881;28;46179;-71
2023/07/04 08:06:27;;;;;;;15.38;3.10;;;19.50;78.80;;;;;;5065164;28;45272;-70
2023/07/04 08:08:56;;;;;;;10.73;2.50;;;19.40;80.50;;;;;;5069259;28;45268;-70
2023/07/04 08:11:23;;;;;;;12.35;2.28;;;19.80;80.00;;;;;;5073498;28;45376;-71
2023/07/04 08:13:50;;;;;;;16.25;2.58;;;19.70;76.20;;;;;;5071283;28;47511;-70
2023/07/04 08:16:20;;;;;;;9.25;1.77;;;19.80;74.30;;;;;;5073906;28;45393;-70
2023/07/04 08:18:49;;;;;;;12.80;2.60;;;19.90;75.00;;;;;;5070758;28;45516;-70
2023/07/04 08:21:16;;;;;;;10.45;2.10;;;19.70;72.30;;;;;;5068059;28;45575;-70
2023/07/04 08:23:43;;;;;;;10.55;2.17;;;19.80;73.10;;;;;;5068513;28;45458;-71
2023/07/04 08:26:15;;;;;;;12.52;2.70;;;20.10;75.60;;;;;;5076390;27;45314;-70
2023/07/04 08:28:42;;;;;;;9.20;1.75;;;20.40;74.60;;;;;;5074591;28;45400;-70
2023/07/04 08:31:09;;;;;;;8.15;2.13;;;20.50;67.00;;;;;;5072766;28;45440;-70
2023/07/04 08:33:36;;;;;;;3.70;1.38;;;19.90;70.70;;;;;;5074679;28;46547;-70
2023/07/04 08:36:07;;;;;;;17.10;2.45;;;19.70;75.40;;;;;;5075007;28;45426;-70
2023/07/04 08:38:34;;;;;;;8.93;2.40;;;19.80;73.00;;;;;;5079013;28;45404;-71
2023/07/04 08:41:01;;;;;;;8.48;2.00;;;19.50;72.70;;;;;;5076691;28;45527;-70
2023/07/04 08:43:35;;;;;;;12.60;2.45;;;19.30;75.70;;;;;;5064045;28;45254;-70
2023/07/04 08:46:04;;;;;;;13.70;2.40;;;19.50;74.00;;;;;;5066376;28;45345;-71
2023/07/04 08:48:31;;;;;;;9.20;1.83;;;19.30;74.40;;;;;;5064958;28;45373;-70
2023/07/04 08:51:01;;;;;;;13.18;2.45;;;19.50;73.20;;;;;;5075850;28;45578;-70
2023/07/04 08:53:30;;;;;;;9.68;1.80;;;19.50;73.20;;;;;;5064518;28;46651;-70
2023/07/04 08:56:03;;;;;;;11.00;2.30;;;19.80;74.50;;;;;;5072498;28;45312;-70
2023/07/04 08:58:36;;;;;;;13.52;2.45;;;20.00;72.90;;;;;;5066333;28;45521;-71
2023/07/04 09:01:10;;;;;;;10.32;1.92;;;20.00;72.30;;;;;;5067848;28;45487;-70
2023/07/04 09:03:45;;;;;;;6.85;1.60;;;20.10;71.20;;;;;;5068526;28;47348;-70
2023/07/04 09:06:17;;;;;;;10.52;2.05;;;20.30;73.60;;;;;;5078719;27;45340;-71
2023/07/04 09:09:04;;;;;;;9.13;1.70;;;20.40;68.70;;;;;;5079719;27;45466;-71
2023/07/04 09:11:32;;;;;;;10.23;2.25;;;20.40;68.00;;;;;;5069443;27;45263;-71
2023/07/04 09:14:03;;;;;;;10.38;1.85;;;20.50;67.50;;;;;;5077825;28;47513;-70
2023/07/04 09:16:36;;;;;;;7.85;1.80;;;20.50;67.10;;;;;;5070626;28;45268;-71
2023/07/04 09:19:05;;;;;;;9.82;2.28;;;20.50;65.00;;;;;;5061964;28;45320;-70
2023/07/04 09:21:33;;;;;;;7.97;2.00;;;20.40;66.30;;;;;;5071043;28;45283;-70
2023/07/04 09:24:02;;;;;;;6.40;2.25;;;20.00;67.80;;;;;;5064276;28;46254;-71
2023/07/04 09:26:37;;;;;;;8.30;2.33;;;20.30;71.20;;;;;;5071501;28;45319;-70
2023/07/04 09:29:06;;;;;;;10.90;2.35;;;20.50;65.30;;;;;;5076100;28;45379;-70
2023/07/04 09:31:37;;;;;;;6.13;1.80;;;20.20;67.90;;;;;;5078279;28;45571;-70
2023/07/04 09:34:08;;;;;;;8.60;1.60;;;20.40;68.20;;;;;;5063998;28;45479;-70
2023/07/04 09:36:38;;;;;;;10.55;2.13;;;20.70;67.00;;;;;;5063623;28;45295;-70
2023/07/04 09:39:08;;;;;;;5.47;1.95;;;20.90;67.80;;;;;;5068823;28;45518;-70
2023/07/04 09:41:37;;;;;;;8.63;1.75;;;20.80;65.40;;;;;;5071267;27;45459;-70
2023/07/04 09:44:27;;;;;;;6.68;1.52;;;20.50;63.90;;;;;;5066490;28;46415;-70
2023/07/04 09:46:55;;;;;;;6.97;1.70;;;20.50;63.30;;;;;;5080762;27;45439;-70
2023/07/04 09:49:25;;;;;;;6.13;1.65;;;20.50;63.60;;;;;;5066174;28;45430;-70
2023/07/04 09:51:59;;;;;;;10.25;1.92;;;20.20;63.20;;;;;;5063644;28;45290;-70
2023/07/04 09:54:28;;;;;;;10.27;2.25;;;20.10;63.90;;;;;;5063938;28;47743;-70
2023/07/04 09:56:55;;;;;;;7.90;1.75;;;20.10;63.40;;;;;;5064417;28;45764;-70
2023/07/04 09:59:25;;;;;;;11.27;2.47;;;20.40;66.10;;;;;;5066195;27;45275;-70
2023/07/04 10:01:53;;;;;;;11.35;2.05;;;20.50;61.90;;;;;;5081319;28;45306;-70
2023/07/04 10:04:26;;;;;;;7.15;1.80;;;20.20;62.10;;;;;;5078028;28;46633;-71
2023/07/04 10:06:55;;;;;;;6.35;1.77;;;20.40;62.10;;;;;;5071574;28;45439;-70
2023/07/04 10:09:22;;;;;;;6.35;1.60;;;20.50;62.50;;;;;;5063806;28;45376;-71
2023/07/04 10:11:53;;;;;;;8.85;2.13;;;20.40;61.80;;;;;;5062798;28;45393;-70
2023/07/04 10:14:34;;;;;;;10.63;2.67;;;20.30;62.00;;;;;;5072994;28;45400;-70
2023/07/04 10:17:10;;;;;;;12.93;2.00;;;20.30;64.30;;;;;;5062570;28;45274;-71
2023/07/04 10:19:42;;;;;;;14.32;2.45;;;20.50;66.60;;;;;;5068421;28;45479;-70
2023/07/04 10:22:09;;;;;;;8.60;2.70;;;20.80;65.50;;;;;;5063898;28;45496;-70
2023/07/04 10:24:36;;;;;;;10.95;2.10;;;21.00;66.30;;;;;;5065509;28;46709;-70
2023/07/04 10:27:10;;;;;;;12.05;2.63;;;21.20;64.80;;;;;;5081786;28;45519;-70
2023/07/04 10:29:40;;;;;;;12.10;2.65;;;21.20;63.60;;;;;;5066129;28;45330;-70
2023/07/04 10:32:13;;;;;;;10.10;2.17;;;20.70;65.90;;;;;;5063509;28;45550;-71
2023/07/04 10:34:41;;;;;;;9.05;2.78;;;20.60;66.00;;;;;;5070469;28;47400;-71
2023/07/04 10:37:10;;;;;;;14.90;3.05;;;20.60;64.40;;;;;;5062167;28;45345;-71
2023/07/04 10:39:38;;;;;;;9.77;2.05;;;20.60;65.50;;;;;;5063274;27;45472;-71
2023/07/04 10:42:13;;;;;;;17.45;2.70;;;20.70;66.40;;;;;;5068593;28;45576;-71
2023/07/04 10:44:43;;;;;;;10.88;2.65;;;20.90;64.10;;;;;;5070426;28;47525;-71
2023/07/04 10:47:15;;;;;;;7.93;2.70;;;20.80;65.20;;;;;;5066425;28;45395;-71
2023/07/04 10:49:47;;;;;;;6.38;2.45;;;21.00;64.70;;;;;;5073116;28;45429;-70
2023/07/04 10:52:19;;;;;;;8.85;2.30;;;21.30;66.10;;;;;;5072810;27;45433;-70
2023/07/04 10:54:46;;;;;;;9.00;2.35;;;21.40;62.70;;;;;;5079087;27;45499;-71
2023/07/04 10:57:23;;;;;;;12.27;2.85;;;21.40;63.80;;;;;;5077507;27;45386;-70
2023/07/04 10:59:57;;;;;;;10.77;2.67;;;21.40;65.00;;;;;;5070380;28;45303;-70
2023/07/04 11:02:29;;;;;;;6.35;2.65;;;21.20;61.70;;;;;;5073222;28;45345;-71
2023/07/04 11:04:59;;;;;;;7.10;2.50;;;21.00;63.60;;;;;;5082180;28;47964;-71
2023/07/04 11:07:28;;;;;;;11.20;2.85;;;21.10;64.60;;;;;;5072218;28;45347;-71
2023/07/04 11:09:57;;;;;;;14.85;2.33;;;21.30;64.80;;;;;;5074601;28;45461;-71
2023/07/04 11:12:28;;;;;;;9.77;2.47;;;21.30;63.70;;;;;;5079789;28;45280;-70
2023/07/04 11:15:01;;;;;;;14.07;2.88;;;21.10;63.60;;;;;;5080576;28;47556;-70
2023/07/04 11:17:31;;;;;;;7.25;2.58;;;21.10;63.80;;;;;;5080155;28;45419;-70
2023/07/04 11:20:10;;;;;;;7.82;2.42;;;21.40;63.80;;;;;;5071340;28;45532;-71
2023/07/04 11:22:45;;;;;;;10.77;2.92;;;21.50;63.70;;;;;;5067534;28;45350;-71
2023/07/04 11:25:36;;;;;;;6.13;2.28;;;21.60;62.90;;;;;;5071822;28;47722;-71
2023/07/04 11:28:17;;;;;;;12.25;2.53;;;21.70;64.60;;;;;;5065621;28;45272;-70
2023/07/04 11:30:46;;;;;;;10.70;2.83;;;21.70;61.80;;;;;;5072322;28;45392;-70
2023/07/04 11:33:38;;;;;;;11.02;2.58;;;21.50;62.40;;;;;;5062873;28;45596;-71
2023/07/04 11:36:06;;;;;;;7.82;2.63;;;21.40;62.60;;;;;;5081780;28;47191;-71
2023/07/04 11:38:36;;;;;;;16.02;2.92;;;21.50;63.50;;;;;;5066150;28;45949;-71
2023/07/04 11:41:03;;;;;;;21.20;3.22;;;21.70;64.40;;;;;;5079313;28;45345;-70
2023/07/04 11:43:41;;;;;;;20.55;3.53;;;21.40;60.60;;;;;;5073926;28;45380;-70
2023/07/04 11:46:10;;;;;;;10.35;2.75;;;21.40;63.80;;;;;;5081429;28;48946;-70
2023/07/04 11:48:49;;;;;;;8.63;2.78;;;21.30;62.20;;;;;;5080875;28;45351;-71
2023/07/04 11:51:18;;;;;;;13.52;2.65;;;21.50;62.10;;;;;;5074490;28;45390;-71
2023/07/04 11:53:47;;;;;;;16.65;3.60;;;21.60;64.60;;;;;;5076895;28;45657;-70
2023/07/04 11:56:17;;;;;;;8.32;2.70;;;21.60;60.90;;;;;;5076687;28;46577;-71
2023/07/04 11:58:46;;;;;;;7.00;2.78;;;21.60;61.10;;;;;;5067934;28;46097;-71
2023/07/04 12:01:14;;;;;;;14.40;3.85;;;21.80;61.90;;;;;;5079104;28;45443;-71
2023/07/04 12:04:06;;;;;;;11.02;3.38;;;21.80;61.00;;;;;;5081389;28;45631;-70
2023/07/04 12:06:56;;;;;;;9.55;3.03;;;21.70;61.50;;;;;;5070231;28;46556;-71
2023/07/04 12:09:39;;;;;;;8.40;3.15;;;21.80;61.20;;;;;;5074993;28;45489;-71
2023/07/04 12:12:07;;;;;;;15.23;3.65;;;21.80;60.70;;;;;;5073781;28;45339;-70
2023/07/04 12:14:39;;;;;;;16.02;3.47;;;21.80;60.50;;;;;;5080082;28;45607;-70
2023/07/04 12:17:07;;;;;;;10.15;3.50;;;21.80;60.00;;;;;;5072449;28;47333;-70
2023/07/04 12:19:34;;;;;;;13.93;3.20;;;21.90;60.20;;;;;;5081981;28;45372;-71
2023/07/04 12:22:01;;;;;;;11.93;3.15;;;21.90;59.80;;;;;;5084339;28;45385;-70
2023/07/04 12:24:29;;;;;;;11.77;3.30;;;21.90;60.30;;;;;;5083168;28;45563;-71
2023/07/04 12:26:58;;;;;;;14.38;3.25;;;21.90;61.30;;;;;;5080422;28;46430;-70
2023/07/04 12:29:26;;;;;;;9.40;3.47;;;21.90;61.20;;;;;;5073949;28;45389;-71
2023/07/04 12:32:06;;;;;;;6.78;2.90;;;22.00;61.60;;;;;;5071147;28;45390;-70
2023/07/04 12:34:34;;;;;;;12.23;3.30;;;22.00;68.00;;;;;;5072037;28;45463;-71
2023/07/04 12:37:05;;;;;;;8.63;3.55;;;21.90;61.40;;;;;;5077205;28;47418;-71
2023/07/04 12:39:38;;;;;;;5.82;2.70;;;22.00;60.60;;;;;;5073034;28;45509;-70
2023/07/04 12:42:06;;;;;;;11.02;3.55;;;22.00;61.40;;;;;;5076888;28;45354;-71
2023/07/04 12:44:36;;;;;;;9.68;4.00;;;22.00;62.00;;;;;;5078084;28;45625;-70
2023/07/04 12:47:10;;;;;;;9.38;3.47;;;22.10;58.30;;;;;;5077559;28;47386;-70
2023/07/04 12:49:37;;;;;;;11.43;3.67;;;22.10;59.20;;;;;;5083143;28;45897;-71